Portada
METAR-TAF:

METAR-TAF

Aeroports :

San José del Cabo, Mèxic

latitud: 23-09N, longitud: 109-42W, altitud: 109 m

Observació

L'informe es va fer fa 44 minuts, a les 14:42 UTC
Vent calma
Temperatura 24°C
Humitat 50%
Pressió 1012 hPa
Visibilitat: 19.3 km
Cel ennuvolat a una alçada de 25000 ft

METAR: MMSD 251442Z 00000KT 12SM BKN250 24/13 A2987 RMK SLP100 5//// 960 8/008

Hora: 09:26 (15:26 UTC)

Pronòstic

L'informe es va fer fa 10 hores i 59 minuts, a les 04:27 UTC
Pronòstic vàlid del 25 a les 06 UTC al 26 a les 06 UTC
Vent 5 kt del Sud-Est
Visibilitat: 10 km
Núvols disperses a una alçada de 25000 ft
A partir de les 25 a les 1700 UTC
Vent 12 kt del Sud/Sud-Est
Visibilitat: 10 km
Núvols disperses a una alçada de 25000 ft
A partir de les 26 a les 0200 UTC
Vent 5 kt del Sud-Est
Visibilitat: 10 km
Núvols disperses a una alçada de 25000 ft

TAF: MMSD 250427Z 2506/2606 13005KT P6SM SCT250 FM251700 16012KT P6SM SCT250 FM260200 13005KT P6SM SCT250

Observacions i pronòstics meteorològics de més de 4000 aeroports (METAR i TAF).

Les estacions disponibles són els punts grocs i vermells al mapa.

Posi el ratolí al punt desitjat per veure el nom de l'estació.

Feu clic per veure les observacions i els pronòstics meteorològics.

Per canviar el mapa: feu clic els botons verds amb una creu de color negre per apropar; al botó verd amb un guió per allunyar la imatge; o en les fletxes verdes per a mapes adjacents.


METAR-TAF: